Loehmanns Plaza, New York
Current Conditions -  °F | °C
As of 9:54 PM on Friday 19 Dec 2014 (Local Time) from KROC Reporting Station
Overcast Overcast  
Wind Chill: 23°   Ceiling: 1900
Heat Index: 30°   Visibility: 10mi
Dew Point: 23°   Wind: 7mph
Humidity: 75%   Direction: 300°WNW
Pressure: 30.25"   Gusts: NA
Location:  43.1139°N, 77.556°W
Report Text: KROC 200254Z 30006KT 10SM OVC019 M01/M05 A3025 RMK AO2 SLP253 T10111050 53005
Loading
Personal Weather Stations






























Interactive Weather Map New forecast layout! Learn more

10-Day Weather Forecast

Advertisements
Track Severe Weather on mobile